createdAt,value
2018-09-14T00:00:18.921Z,66.67
2018-09-14T00:02:48.146Z,66.94
2018-09-14T00:05:18.261Z,67.25
2018-09-14T00:07:47.451Z,67.07
2018-09-14T00:10:17.428Z,67.33
2018-09-14T00:12:46.616Z,67.61
2018-09-14T00:15:18.375Z,66.74
2018-09-14T00:17:47.566Z,67.50
2018-09-14T00:20:18.119Z,66.00
2018-09-14T00:22:47.339Z,66.97
2018-09-14T00:25:17.828Z,66.12
2018-09-14T00:27:47.024Z,65.47
2018-09-14T00:30:18.311Z,66.41
2018-09-14T00:32:47.609Z,65.89
2018-09-14T00:35:19.069Z,66.22
2018-09-14T00:37:48.227Z,65.08
2018-09-14T00:40:18.068Z,65.75
2018-09-14T00:42:47.293Z,65.29
2018-09-14T00:45:17.575Z,65.09
2018-09-14T00:47:46.746Z,66.08
2018-09-14T00:50:17.831Z,65.43
2018-09-14T00:52:47.069Z,64.80
2018-09-14T00:55:17.799Z,65.73
2018-09-14T00:57:47.020Z,64.91
2018-09-14T01:00:17.587Z,65.73
2018-09-14T01:02:47.004Z,64.65
2018-09-14T01:05:18.381Z,65.48
2018-09-14T01:07:47.556Z,65.19
2018-09-14T01:10:18.818Z,64.20
2018-09-14T01:12:48.107Z,64.42
2018-09-14T01:15:17.703Z,64.58
2018-09-14T01:17:46.895Z,64.18
2018-09-14T01:20:18.349Z,64.57
2018-09-14T01:22:47.548Z,65.39
2018-09-14T01:25:17.334Z,65.56
2018-09-14T01:27:47.702Z,65.92
2018-09-14T01:30:18.313Z,66.55
2018-09-14T01:32:47.612Z,65.03
2018-09-14T01:35:23.496Z,65.31
2018-09-14T01:37:52.691Z,64.62
2018-09-14T01:40:22.028Z,64.70
2018-09-14T01:42:51.280Z,63.95
2018-09-14T01:45:20.654Z,63.40
2018-09-14T01:47:49.863Z,63.77
2018-09-14T01:50:21.979Z,63.70
2018-09-14T01:52:51.181Z,64.19
2018-09-14T01:55:20.678Z,63.86
2018-09-14T01:57:49.924Z,64.42
2018-09-14T02:00:19.287Z,64.63
2018-09-14T02:02:48.480Z,63.48
2018-09-14T02:05:18.098Z,64.06
2018-09-14T02:07:47.294Z,64.10
2018-09-14T02:10:22.154Z,64.71
2018-09-14T02:12:52.338Z,64.27
2018-09-14T02:15:21.712Z,64.09
2018-09-14T02:17:50.886Z,63.79
2018-09-14T02:20:20.297Z,63.99
2018-09-14T02:22:49.678Z,64.08
2018-09-14T02:25:19.244Z,63.52
2018-09-14T02:27:48.428Z,63.39
2018-09-14T02:30:17.937Z,63.51
2018-09-14T02:32:50.052Z,63.48
2018-09-14T02:35:20.310Z,63.70
2018-09-14T02:37:49.511Z,64.07
2018-09-14T02:40:19.996Z,63.35
2018-09-14T02:42:49.163Z,64.33
2018-09-14T02:45:19.571Z,64.18
2018-09-14T02:47:48.789Z,63.67
2018-09-14T02:50:18.323Z,63.91
2018-09-14T02:52:47.506Z,64.46
2018-09-14T02:55:18.607Z,63.28
2018-09-14T02:57:47.811Z,63.37
2018-09-14T03:00:18.130Z,64.07
2018-09-14T03:02:47.243Z,63.10
2018-09-14T03:05:17.123Z,62.87
2018-09-14T03:07:46.297Z,62.58
2018-09-14T03:10:17.449Z,63.96
2018-09-14T03:12:47.709Z,63.86
2018-09-14T03:15:18.538Z,63.44
2018-09-14T03:17:47.817Z,63.61
2018-09-14T03:20:18.860Z,62.71
2018-09-14T03:22:48.119Z,62.82
2018-09-14T03:25:17.674Z,62.89
2018-09-14T03:27:46.939Z,63.27
2018-09-14T03:30:17.728Z,62.73
2018-09-14T03:32:46.900Z,64.34
2018-09-14T03:35:16.743Z,63.98
2018-09-14T03:37:45.941Z,63.39
2018-09-14T03:40:16.200Z,63.75
2018-09-14T03:42:45.412Z,62.85
2018-09-14T03:45:15.772Z,63.51
2018-09-14T03:47:44.972Z,62.98
2018-09-14T03:50:15.788Z,63.57
2018-09-14T03:52:45.003Z,63.72
2018-09-14T03:55:15.948Z,63.80
2018-09-14T03:57:45.192Z,64.12
2018-09-14T04:00:16.275Z,63.33
2018-09-14T04:02:45.479Z,63.44
2018-09-14T04:05:15.907Z,63.98
2018-09-14T04:07:45.235Z,63.45
2018-09-14T04:10:15.713Z,63.42
2018-09-14T04:12:44.959Z,63.75
2018-09-14T04:15:14.768Z,63.39
2018-09-14T04:17:43.937Z,64.66
2018-09-14T04:20:13.189Z,63.75
2018-09-14T04:22:43.472Z,63.47
2018-09-14T04:25:13.549Z,63.31
2018-09-14T04:27:42.733Z,62.92
2018-09-14T04:30:11.940Z,63.52
2018-09-14T04:32:41.199Z,63.02
2018-09-14T04:35:10.460Z,63.28
2018-09-14T04:37:39.676Z,62.81
2018-09-14T04:40:08.973Z,63.27
2018-09-14T04:42:38.192Z,62.67
2018-09-14T04:45:07.425Z,63.20
2018-09-14T04:47:36.651Z,62.94
2018-09-14T04:50:06.136Z,63.02
2018-09-14T04:52:35.356Z,62.66
2018-09-14T04:55:04.695Z,62.85
2018-09-14T04:57:34.033Z,62.64
2018-09-14T05:00:03.260Z,62.28
2018-09-14T05:02:32.453Z,61.63
2018-09-14T05:05:01.650Z,62.79
2018-09-14T05:07:30.863Z,62.50
2018-09-14T05:10:00.094Z,61.89
2018-09-14T05:12:29.344Z,62.32
2018-09-14T05:14:58.615Z,62.94
2018-09-14T05:17:27.856Z,62.68
2018-09-14T05:19:57.030Z,62.36
2018-09-14T05:22:26.283Z,61.71
2018-09-14T05:24:55.510Z,61.96
2018-09-14T05:27:24.697Z,61.79
2018-09-14T05:29:53.916Z,62.08
2018-09-14T05:32:23.260Z,62.20
2018-09-14T05:34:52.406Z,62.81
2018-09-14T05:37:21.638Z,62.30
2018-09-14T05:39:50.822Z,61.96
2018-09-14T05:42:20.107Z,62.02
2018-09-14T05:44:49.315Z,61.57
2018-09-14T05:47:18.555Z,62.33
2018-09-14T05:49:47.715Z,61.25
2018-09-14T05:52:16.930Z,61.89
2018-09-14T05:54:46.130Z,62.04
2018-09-14T05:57:15.352Z,61.59
2018-09-14T05:59:44.578Z,61.89
2018-09-14T06:02:13.859Z,62.05
2018-09-14T06:04:43.023Z,61.02
2018-09-14T06:07:12.263Z,62.15
2018-09-14T06:09:41.519Z,61.30
2018-09-14T06:12:10.762Z,60.66
2018-09-14T06:14:39.927Z,60.60
2018-09-14T06:17:09.522Z,60.45
2018-09-14T06:19:38.630Z,59.99
2018-09-14T06:22:08.331Z,60.24
2018-09-14T06:24:37.584Z,60.03
2018-09-14T06:27:07.219Z,59.66
2018-09-14T06:29:36.430Z,59.68
2018-09-14T06:32:05.695Z,59.99
2018-09-14T06:34:34.848Z,59.54
2018-09-14T06:37:04.129Z,59.56
2018-09-14T06:39:34.792Z,59.88
2018-09-14T06:42:04.010Z,59.73
2018-09-14T06:44:33.243Z,59.89
2018-09-14T06:47:02.509Z,59.81
2018-09-14T06:49:31.703Z,59.81
2018-09-14T06:52:01.693Z,59.16
2018-09-14T06:54:31.260Z,60.17
2018-09-14T06:57:00.470Z,61.50
2018-09-14T06:59:32.431Z,62.53
2018-09-14T07:02:01.886Z,62.15
2018-09-14T07:04:31.867Z,60.76
2018-09-14T07:07:01.099Z,60.15
2018-09-14T07:09:30.399Z,60.54
2018-09-14T07:11:59.627Z,59.14
2018-09-14T07:14:28.794Z,57.86
2018-09-14T07:16:58.041Z,56.92
2018-09-14T07:19:27.248Z,56.26
2018-09-14T07:21:56.653Z,57.27
2018-09-14T07:24:25.685Z,57.52
2018-09-14T07:26:54.905Z,56.76
2018-09-14T07:29:25.002Z,56.10
2018-09-14T07:31:54.445Z,56.41
2018-09-14T07:34:23.538Z,57.75
2018-09-14T07:36:52.813Z,56.93
2018-09-14T07:39:22.082Z,56.74
2018-09-14T07:41:51.411Z,57.58
2018-09-14T07:44:20.635Z,56.73
2018-09-14T07:46:49.932Z,57.54
2018-09-14T07:49:19.286Z,57.76
2018-09-14T07:51:48.598Z,56.89
2018-09-14T07:54:17.819Z,57.20
2018-09-14T07:56:47.108Z,57.03
2018-09-14T07:59:16.330Z,56.90
2018-09-14T08:01:45.582Z,57.23
2018-09-14T08:04:14.803Z,56.52
2018-09-14T08:06:44.060Z,56.84
2018-09-14T08:09:14.143Z,56.14
2018-09-14T08:11:43.531Z,54.01
2018-09-14T08:14:12.736Z,51.33
2018-09-14T08:16:41.990Z,49.61
2018-09-14T08:19:11.461Z,49.59
2018-09-14T08:21:40.867Z,48.89
2018-09-14T08:24:10.428Z,49.01
2018-09-14T08:26:39.636Z,49.18
2018-09-14T08:29:10.167Z,48.66
2018-09-14T08:31:39.416Z,48.72
2018-09-14T08:34:09.217Z,48.32
2018-09-14T08:36:38.456Z,47.24
2018-09-14T08:39:12.425Z,47.27
2018-09-14T08:41:41.643Z,47.62
2018-09-14T08:44:10.905Z,47.29
2018-09-14T08:46:40.119Z,46.83
2018-09-14T08:49:09.780Z,47.75
2018-09-14T08:51:38.987Z,47.17
2018-09-14T08:54:08.717Z,46.80
2018-09-14T08:56:38.009Z,47.09
2018-09-14T08:59:07.970Z,48.09
2018-09-14T09:01:37.220Z,47.76
2018-09-14T09:04:06.826Z,48.13
2018-09-14T09:06:36.037Z,47.49
2018-09-14T09:09:09.257Z,48.72
2018-09-14T09:11:38.463Z,49.36
2018-09-14T09:14:08.310Z,49.89
2018-09-14T09:16:38.220Z,50.99
2018-09-14T09:19:07.523Z,50.38
2018-09-14T09:21:36.876Z,51.79
2018-09-14T09:24:06.100Z,48.66
2018-09-14T09:26:35.291Z,47.29
2018-09-14T09:29:04.588Z,46.97
2018-09-14T09:31:33.819Z,46.88
2018-09-14T09:34:03.022Z,45.75
2018-09-14T09:36:32.287Z,46.81
2018-09-14T09:39:01.507Z,48.56
2018-09-14T09:41:30.701Z,47.40
2018-09-14T09:43:59.935Z,46.39
2018-09-14T09:46:29.175Z,46.74
2018-09-14T09:48:58.453Z,49.28
2018-09-14T09:51:27.976Z,48.90
2018-09-14T09:53:57.199Z,48.34
2018-09-14T09:56:26.481Z,49.94
2018-09-14T09:58:55.712Z,50.17
2018-09-14T10:01:30.511Z,50.21
2018-09-14T10:04:05.784Z,49.54
2018-09-14T10:06:36.377Z,48.05
2018-09-14T10:09:11.149Z,46.87
2018-09-14T10:11:41.662Z,48.03
2018-09-14T10:14:13.201Z,46.91
2018-09-14T10:16:42.479Z,45.22
2018-09-14T10:19:11.720Z,45.07
2018-09-14T10:21:41.015Z,44.65
2018-09-14T10:24:11.239Z,43.11
2018-09-14T10:26:43.387Z,42.87
2018-09-14T10:29:12.650Z,42.26
2018-09-14T10:31:41.891Z,43.15
2018-09-14T10:34:11.722Z,42.32
2018-09-14T10:36:40.958Z,43.52
2018-09-14T10:39:11.713Z,42.96
2018-09-14T10:41:40.955Z,42.09
2018-09-14T10:44:10.602Z,42.71
2018-09-14T10:46:39.853Z,43.05
2018-09-14T10:49:09.526Z,42.50
2018-09-14T10:51:38.762Z,41.92
2018-09-14T10:54:08.555Z,41.71
2018-09-14T10:56:37.707Z,41.14
2018-09-14T10:59:07.243Z,40.38
2018-09-14T11:01:36.469Z,41.08
2018-09-14T11:04:05.902Z,40.12
2018-09-14T11:06:35.200Z,40.61
2018-09-14T11:09:07.233Z,41.43
2018-09-14T11:11:36.438Z,41.13
2018-09-14T11:14:05.736Z,40.59
2018-09-14T11:16:35.040Z,40.67
2018-09-14T11:19:04.295Z,40.89
2018-09-14T11:21:33.790Z,40.95
2018-09-14T11:24:03.248Z,41.42
2018-09-14T11:26:32.595Z,41.83
2018-09-14T11:29:01.814Z,40.49
2018-09-14T11:31:31.023Z,41.65
2018-09-14T11:34:00.241Z,40.41
2018-09-14T11:36:29.444Z,41.18
2018-09-14T11:38:58.635Z,40.35
2018-09-14T11:41:27.878Z,39.64
2018-09-14T11:43:57.071Z,40.92
2018-09-14T11:46:26.331Z,39.59
2018-09-14T11:48:55.657Z,39.54
2018-09-14T11:51:24.909Z,39.65
2018-09-14T11:53:54.111Z,39.38
2018-09-14T11:56:23.351Z,40.04
2018-09-14T11:58:52.588Z,39.76
2018-09-14T12:01:21.832Z,38.58
2018-09-14T12:03:51.022Z,38.59
2018-09-14T12:06:20.235Z,39.15
2018-09-14T12:08:49.482Z,38.63
2018-09-14T12:11:18.746Z,39.02
2018-09-14T12:13:47.955Z,39.58
2018-09-14T12:16:17.176Z,40.22
2018-09-14T12:18:46.393Z,39.59
2018-09-14T12:21:15.631Z,39.39
2018-09-14T12:23:44.854Z,39.53
2018-09-14T12:26:14.080Z,38.61
2018-09-14T12:28:43.327Z,37.94
2018-09-14T12:31:12.588Z,37.71
2018-09-14T12:33:41.849Z,38.78
2018-09-14T12:36:11.134Z,38.50
2018-09-14T12:38:40.361Z,37.64
2018-09-14T12:41:10.019Z,37.80
2018-09-14T12:43:39.239Z,38.22
2018-09-14T12:46:08.903Z,37.10
2018-09-14T12:48:38.145Z,38.10
2018-09-14T12:51:07.961Z,38.37
2018-09-14T12:53:37.110Z,39.16
2018-09-14T12:56:06.801Z,38.75
2018-09-14T12:58:35.985Z,39.37
2018-09-14T13:01:05.407Z,39.05
2018-09-14T13:03:34.679Z,39.61
2018-09-14T13:06:03.950Z,39.16
2018-09-14T13:08:33.123Z,39.02
2018-09-14T13:11:02.353Z,39.85
2018-09-14T13:13:31.540Z,40.00
2018-09-14T13:16:00.815Z,40.51
2018-09-14T13:18:30.275Z,40.44
2018-09-14T13:20:59.552Z,39.91
2018-09-14T13:23:28.723Z,41.00
2018-09-14T13:25:58.029Z,40.17
2018-09-14T13:28:27.291Z,40.59
2018-09-14T13:30:56.502Z,40.56
2018-09-14T13:33:25.731Z,39.47
2018-09-14T13:35:55.878Z,39.87
2018-09-14T13:38:25.066Z,39.18
2018-09-14T13:40:54.295Z,40.35
2018-09-14T13:43:23.553Z,40.00
2018-09-14T13:45:52.873Z,39.64
2018-09-14T13:48:22.039Z,39.09
2018-09-14T13:50:51.304Z,40.11
2018-09-14T13:53:20.639Z,39.42
2018-09-14T13:55:49.908Z,38.71
2018-09-14T13:58:19.207Z,39.17
2018-09-14T14:00:48.433Z,40.42
2018-09-14T14:03:17.590Z,40.51
2018-09-14T14:05:47.376Z,40.69
2018-09-14T14:08:16.510Z,41.63
2018-09-14T14:10:45.751Z,41.95
2018-09-14T14:13:14.998Z,42.85
2018-09-14T14:15:44.217Z,42.10
2018-09-14T14:18:13.541Z,42.26
2018-09-14T14:20:42.809Z,42.90
2018-09-14T14:23:12.096Z,41.82
2018-09-14T14:25:41.299Z,42.39
2018-09-14T14:28:10.540Z,41.16
2018-09-14T14:30:39.816Z,42.27
2018-09-14T14:33:09.218Z,40.19
2018-09-14T14:35:38.597Z,39.33
2018-09-14T14:38:08.337Z,39.34
2018-09-14T14:40:37.767Z,40.03
2018-09-14T14:43:07.700Z,40.50
2018-09-14T14:45:36.931Z,40.23
2018-09-14T14:48:06.429Z,40.03
2018-09-14T14:50:35.653Z,40.16
2018-09-14T14:53:04.835Z,39.85
2018-09-14T14:55:34.112Z,39.87
2018-09-14T14:58:03.559Z,40.97
2018-09-14T15:00:32.938Z,40.96
2018-09-14T15:03:02.139Z,40.31
2018-09-14T15:05:31.420Z,41.53
2018-09-14T15:08:00.643Z,41.37
2018-09-14T15:10:30.054Z,41.00
2018-09-14T15:12:59.213Z,41.34
2018-09-14T15:15:28.467Z,41.90
2018-09-14T15:17:57.676Z,41.73
2018-09-14T15:20:26.921Z,41.91
2018-09-14T15:22:56.136Z,41.49
2018-09-14T15:25:26.233Z,41.73
2018-09-14T15:27:55.444Z,42.11
2018-09-14T15:30:24.694Z,42.03
2018-09-14T15:32:54.010Z,42.64
2018-09-14T15:35:23.318Z,41.78
2018-09-14T15:37:52.572Z,42.54
2018-09-14T15:40:21.863Z,42.91
2018-09-14T15:42:51.121Z,42.32
2018-09-14T15:45:20.335Z,41.80
2018-09-14T15:47:49.703Z,40.51
2018-09-14T15:50:18.960Z,41.46
2018-09-14T15:52:48.175Z,40.51
2018-09-14T15:55:17.463Z,40.83
2018-09-14T15:57:46.690Z,41.56
2018-09-14T16:00:15.997Z,40.93
2018-09-14T16:02:45.259Z,40.43
2018-09-14T16:05:14.423Z,41.81
2018-09-14T16:07:43.619Z,42.24
2018-09-14T16:10:13.009Z,42.60
2018-09-14T16:12:42.249Z,42.09
2018-09-14T16:15:11.827Z,42.43
2018-09-14T16:17:41.039Z,42.70
2018-09-14T16:20:11.236Z,41.55
2018-09-14T16:22:40.459Z,42.35
2018-09-14T16:25:10.394Z,41.01
2018-09-14T16:27:39.727Z,41.47
2018-09-14T16:30:09.535Z,41.67
2018-09-14T16:32:39.084Z,42.03
2018-09-14T16:35:08.951Z,41.18
2018-09-14T16:37:38.188Z,41.94
2018-09-14T16:40:08.710Z,40.82
2018-09-14T16:42:37.919Z,41.72
2018-09-14T16:45:07.218Z,41.92
2018-09-14T16:47:36.430Z,41.89
2018-09-14T16:50:05.740Z,42.53
2018-09-14T16:52:34.971Z,42.68
2018-09-14T16:55:04.282Z,43.20
2018-09-14T16:57:33.605Z,43.86
2018-09-14T17:00:02.811Z,42.53
2018-09-14T17:02:32.045Z,43.48
2018-09-14T17:05:01.223Z,42.87
2018-09-14T17:07:30.432Z,42.28
2018-09-14T17:09:59.632Z,42.84
2018-09-14T17:12:28.836Z,43.18
2018-09-14T17:14:57.988Z,43.93
2018-09-14T17:17:27.246Z,42.85
2018-09-14T17:19:56.410Z,43.03
2018-09-14T17:22:25.635Z,43.98
2018-09-14T17:24:54.839Z,43.93
2018-09-14T17:27:24.242Z,43.73
2018-09-14T17:29:53.405Z,43.93
2018-09-14T17:32:22.655Z,43.44
2018-09-14T17:34:51.841Z,43.62
2018-09-14T17:37:21.039Z,43.12
2018-09-14T17:39:50.210Z,43.17
2018-09-14T17:42:19.521Z,43.97
2018-09-14T17:44:48.752Z,43.42
2018-09-14T17:47:17.973Z,43.45
2018-09-14T17:49:47.227Z,43.70
2018-09-14T17:52:16.495Z,43.59
2018-09-14T17:54:45.981Z,43.79
2018-09-14T17:57:15.204Z,44.19
2018-09-14T17:59:44.423Z,44.25
2018-09-14T18:02:13.700Z,44.15
2018-09-14T18:04:42.900Z,44.71
2018-09-14T18:07:12.611Z,43.77
2018-09-14T18:09:41.948Z,44.37
2018-09-14T18:12:11.180Z,44.54
2018-09-14T18:14:40.369Z,44.65
2018-09-14T18:17:09.606Z,45.00
2018-09-14T18:19:38.774Z,44.15
2018-09-14T18:22:08.126Z,44.85
2018-09-14T18:24:37.379Z,44.26
2018-09-14T18:27:06.885Z,44.93
2018-09-14T18:29:36.614Z,44.84
2018-09-14T18:32:05.958Z,44.88
2018-09-14T18:34:35.507Z,44.33
2018-09-14T18:37:04.743Z,44.74
2018-09-14T18:39:33.943Z,44.65
2018-09-14T18:42:03.123Z,44.15
2018-09-14T18:44:32.624Z,44.63
2018-09-14T18:47:01.807Z,44.60
2018-09-14T18:49:31.038Z,44.20
2018-09-14T18:52:00.327Z,44.07
2018-09-14T18:54:29.543Z,44.78
2018-09-14T18:56:59.943Z,45.21
2018-09-14T18:59:29.203Z,44.66
2018-09-14T19:01:58.403Z,45.56
2018-09-14T19:04:27.842Z,45.12
2018-09-14T19:06:58.374Z,44.79
2018-09-14T19:09:27.646Z,44.85
2018-09-14T19:11:56.966Z,45.19
2018-09-14T19:14:26.132Z,44.46
2018-09-14T19:16:55.339Z,44.85
2018-09-14T19:19:24.664Z,45.05
2018-09-14T19:21:53.914Z,45.28
2018-09-14T19:24:27.379Z,45.60
2018-09-14T19:27:22.291Z,45.17
2018-09-14T19:29:51.558Z,45.80
2018-09-14T19:32:20.784Z,46.15
2018-09-14T19:34:50.046Z,45.78
2018-09-14T19:37:19.186Z,45.45
2018-09-14T19:39:48.413Z,45.21
2018-09-14T19:42:17.870Z,45.46
2018-09-14T19:44:47.053Z,45.65
2018-09-14T19:47:16.785Z,45.69
2018-09-14T19:49:46.148Z,45.35
2018-09-14T19:52:16.079Z,45.43
2018-09-14T19:54:45.301Z,45.50
2018-09-14T19:57:15.216Z,45.77
2018-09-14T19:59:44.473Z,46.25
2018-09-14T20:02:14.375Z,46.32
2018-09-14T20:04:48.009Z,46.79
2018-09-14T20:07:17.697Z,46.50
2018-09-14T20:09:46.878Z,46.67
2018-09-14T20:12:16.239Z,46.12
2018-09-14T20:14:45.498Z,46.73
2018-09-14T20:17:15.460Z,46.21
2018-09-14T20:19:44.699Z,46.72
2018-09-14T20:22:14.955Z,46.88
2018-09-14T20:24:44.167Z,47.08
2018-09-14T20:27:14.034Z,46.35
2018-09-14T20:29:43.269Z,45.96
2018-09-14T20:32:12.612Z,46.49
2018-09-14T20:34:41.747Z,46.33
2018-09-14T20:37:10.997Z,46.83
2018-09-14T20:39:40.119Z,47.01
2018-09-14T20:42:09.399Z,47.65
2018-09-14T20:44:38.553Z,47.21
2018-09-14T20:47:07.787Z,47.74
2018-09-14T20:49:36.973Z,47.47
2018-09-14T20:52:06.420Z,47.11
2018-09-14T20:54:35.664Z,47.80
2018-09-14T20:57:04.927Z,47.36
2018-09-14T20:59:34.106Z,46.31
2018-09-14T21:02:04.016Z,46.29
2018-09-14T21:04:33.700Z,47.29
2018-09-14T21:07:02.954Z,47.44
2018-09-14T21:09:32.148Z,46.35
2018-09-14T21:12:01.341Z,46.42
2018-09-14T21:14:30.521Z,47.00
2018-09-14T21:16:59.909Z,46.75
2018-09-14T21:19:29.791Z,46.74
2018-09-14T21:21:59.008Z,46.61
2018-09-14T21:24:28.378Z,46.01
2018-09-14T21:26:57.660Z,46.83
2018-09-14T21:29:26.879Z,47.17
2018-09-14T21:31:56.143Z,46.49
2018-09-14T21:34:25.356Z,46.97
2018-09-14T21:36:54.571Z,47.31
2018-09-14T21:39:24.589Z,46.63
2018-09-14T21:41:53.867Z,47.25
2018-09-14T21:44:23.048Z,46.02
2018-09-14T21:46:52.219Z,46.49
2018-09-14T21:49:21.471Z,47.37
2018-09-14T21:51:50.739Z,47.71
2018-09-14T21:54:20.171Z,47.62
2018-09-14T21:56:49.681Z,47.43
2018-09-14T21:59:19.002Z,47.78
2018-09-14T22:01:48.232Z,48.05
2018-09-14T22:04:18.919Z,48.58
2018-09-14T22:06:48.205Z,47.55
2018-09-14T22:09:17.650Z,47.97
2018-09-14T22:11:46.929Z,48.98
2018-09-14T22:14:16.426Z,48.25
2018-09-14T22:16:45.630Z,47.58
2018-09-14T22:19:15.395Z,47.11
2018-09-14T22:21:45.001Z,48.30
2018-09-14T22:24:14.679Z,46.95
2018-09-14T22:26:43.906Z,47.63
2018-09-14T22:29:13.744Z,47.26
2018-09-14T22:31:42.927Z,47.32
2018-09-14T22:34:12.144Z,46.54
2018-09-14T22:36:41.411Z,45.69
2018-09-14T22:39:12.952Z,45.63
2018-09-14T22:41:42.188Z,46.14
2018-09-14T22:44:11.468Z,45.51
2018-09-14T22:46:40.669Z,45.43
2018-09-14T22:49:09.858Z,45.32
2018-09-14T22:51:39.099Z,45.78
2018-09-14T22:54:08.337Z,45.91
2018-09-14T22:56:37.538Z,46.12
2018-09-14T22:59:06.772Z,46.57
2018-09-14T23:01:36.012Z,45.95
2018-09-14T23:04:05.211Z,45.93
2018-09-14T23:06:34.535Z,45.98
2018-09-14T23:09:03.959Z,45.25
2018-09-14T23:11:33.183Z,45.08
2018-09-14T23:14:02.383Z,45.45
2018-09-14T23:16:31.635Z,46.07
2018-09-14T23:19:00.843Z,44.74
2018-09-14T23:21:30.103Z,46.26
2018-09-14T23:23:59.290Z,45.18
2018-09-14T23:26:29.103Z,45.95
2018-09-14T23:28:58.307Z,45.40
2018-09-14T23:31:27.576Z,45.45
2018-09-14T23:33:56.775Z,44.77
2018-09-14T23:36:26.062Z,45.22
2018-09-14T23:41:58.034Z,46.58
2018-09-14T23:44:27.283Z,46.03
2018-09-14T23:46:56.530Z,46.05
2018-09-14T23:49:25.716Z,46.53
2018-09-14T23:51:54.937Z,47.31
2018-09-14T23:54:24.323Z,46.15
2018-09-14T23:56:53.579Z,45.86
2018-09-14T23:59:22.830Z,45.18
